Terminal Aerodrome Forecast
Issued by NWS

Home | Current Version | Previous Version | Text Only | Print | Product List | Glossary On
Versions: 1 2 3 4 5 6 7 8 9 10 11 12 13 14 15 16 17 18 19 20
000
FTUS43 KBIS 231200 AAA
TAFJMS
TAF AMD
KJMS 231240Z 2313/2412 04007KT 4SM BR OVC004
      TEMPO 2313/2315 2SM BR OVC003
     FM231800 06015KT 5SM SHRA BR VCTS OVC008CB
     FM240000 10015KT 5SM -SHRA BR OVC004
     FM240500 13012KT 6SM BR VCSH OVC004=

USA.gov is the U.S. government's official web portal to all federal, state and local government web resources and services.